sensor_id;sensor_type;location;lat;lon;timestamp;P1;durP1;ratioP1;P2;durP2;ratioP2
11151;SDS011;5630;49.342;10.802;2024-02-26T00:00:09;7.47;;;5.90;;
11151;SDS011;5630;49.342;10.802;2024-02-26T00:02:38;7.83;;;5.80;;
11151;SDS011;5630;49.342;10.802;2024-02-26T00:05:05;7.40;;;5.53;;
11151;SDS011;5630;49.342;10.802;2024-02-26T00:07:32;7.23;;;5.00;;
11151;SDS011;5630;49.342;10.802;2024-02-26T00:09:58;8.50;;;5.17;;
11151;SDS011;5630;49.342;10.802;2024-02-26T00:12:23;9.90;;;5.60;;
11151;SDS011;5630;49.342;10.802;2024-02-26T00:14:49;8.63;;;5.57;;
11151;SDS011;5630;49.342;10.802;2024-02-26T00:17:15;9.23;;;5.73;;
11151;SDS011;5630;49.342;10.802;2024-02-26T00:19:41;9.07;;;5.57;;
11151;SDS011;5630;49.342;10.802;2024-02-26T00:22:06;7.27;;;5.50;;
11151;SDS011;5630;49.342;10.802;2024-02-26T00:24:32;7.67;;;5.57;;
11151;SDS011;5630;49.342;10.802;2024-02-26T00:26:58;9.37;;;5.73;;
11151;SDS011;5630;49.342;10.802;2024-02-26T00:29:24;7.30;;;5.20;;
11151;SDS011;5630;49.342;10.802;2024-02-26T00:31:50;7.40;;;5.20;;
11151;SDS011;5630;49.342;10.802;2024-02-26T00:34:16;7.97;;;5.77;;
11151;SDS011;5630;49.342;10.802;2024-02-26T00:36:41;7.00;;;5.47;;
11151;SDS011;5630;49.342;10.802;2024-02-26T00:39:07;8.70;;;5.83;;
11151;SDS011;5630;49.342;10.802;2024-02-26T00:41:33;7.53;;;6.00;;
11151;SDS011;5630;49.342;10.802;2024-02-26T00:44:02;8.20;;;5.70;;
11151;SDS011;5630;49.342;10.802;2024-02-26T00:46:28;8.03;;;5.80;;
11151;SDS011;5630;49.342;10.802;2024-02-26T00:48:54;9.70;;;5.43;;
11151;SDS011;5630;49.342;10.802;2024-02-26T00:51:19;6.90;;;5.70;;
11151;SDS011;5630;49.342;10.802;2024-02-26T00:53:45;8.53;;;6.13;;
11151;SDS011;5630;49.342;10.802;2024-02-26T00:56:10;8.57;;;5.87;;
11151;SDS011;5630;49.342;10.802;2024-02-26T00:58:36;6.87;;;5.70;;
11151;SDS011;5630;49.342;10.802;2024-02-26T01:01:01;7.30;;;5.83;;
11151;SDS011;5630;49.342;10.802;2024-02-26T01:03:28;8.73;;;5.83;;
11151;SDS011;5630;49.342;10.802;2024-02-26T01:05:53;8.13;;;5.77;;
11151;SDS011;5630;49.342;10.802;2024-02-26T01:08:19;7.63;;;5.70;;
11151;SDS011;5630;49.342;10.802;2024-02-26T01:10:45;7.77;;;6.03;;
11151;SDS011;5630;49.342;10.802;2024-02-26T01:13:11;8.83;;;6.00;;
11151;SDS011;5630;49.342;10.802;2024-02-26T01:15:36;8.57;;;6.20;;
11151;SDS011;5630;49.342;10.802;2024-02-26T01:18:02;9.87;;;6.17;;
11151;SDS011;5630;49.342;10.802;2024-02-26T01:20:27;7.90;;;6.30;;
11151;SDS011;5630;49.342;10.802;2024-02-26T01:22:53;7.53;;;5.53;;
11151;SDS011;5630;49.342;10.802;2024-02-26T01:25:19;7.97;;;6.27;;
11151;SDS011;5630;49.342;10.802;2024-02-26T01:27:44;8.37;;;6.17;;
11151;SDS011;5630;49.342;10.802;2024-02-26T01:30:10;8.53;;;6.43;;
11151;SDS011;5630;49.342;10.802;2024-02-26T01:32:36;7.63;;;5.87;;
11151;SDS011;5630;49.342;10.802;2024-02-26T01:35:02;9.73;;;6.60;;
11151;SDS011;5630;49.342;10.802;2024-02-26T01:37:36;10.33;;;6.60;;
11151;SDS011;5630;49.342;10.802;2024-02-26T01:40:01;7.10;;;6.40;;
11151;SDS011;5630;49.342;10.802;2024-02-26T01:42:31;8.93;;;6.50;;
11151;SDS011;5630;49.342;10.802;2024-02-26T01:44:57;7.90;;;5.77;;
11151;SDS011;5630;49.342;10.802;2024-02-26T01:47:23;8.47;;;6.27;;
11151;SDS011;5630;49.342;10.802;2024-02-26T01:49:50;11.30;;;6.30;;
11151;SDS011;5630;49.342;10.802;2024-02-26T01:52:15;9.20;;;6.57;;
11151;SDS011;5630;49.342;10.802;2024-02-26T01:54:41;7.90;;;6.67;;
11151;SDS011;5630;49.342;10.802;2024-02-26T01:57:09;9.00;;;7.13;;
11151;SDS011;5630;49.342;10.802;2024-02-26T01:59:36;9.83;;;7.37;;
11151;SDS011;5630;49.342;10.802;2024-02-26T02:02:03;9.30;;;7.07;;
11151;SDS011;5630;49.342;10.802;2024-02-26T02:04:32;8.23;;;6.33;;
11151;SDS011;5630;49.342;10.802;2024-02-26T02:06:58;10.83;;;7.43;;
11151;SDS011;5630;49.342;10.802;2024-02-26T02:09:26;8.57;;;7.10;;
11151;SDS011;5630;49.342;10.802;2024-02-26T02:11:52;10.53;;;7.40;;
11151;SDS011;5630;49.342;10.802;2024-02-26T02:14:18;9.43;;;7.17;;
11151;SDS011;5630;49.342;10.802;2024-02-26T02:16:43;9.30;;;7.27;;
11151;SDS011;5630;49.342;10.802;2024-02-26T02:19:09;13.07;;;7.67;;
11151;SDS011;5630;49.342;10.802;2024-02-26T02:21:35;9.23;;;7.20;;
11151;SDS011;5630;49.342;10.802;2024-02-26T02:24:00;9.93;;;7.90;;
11151;SDS011;5630;49.342;10.802;2024-02-26T02:26:26;11.30;;;7.93;;
11151;SDS011;5630;49.342;10.802;2024-02-26T02:28:51;12.47;;;7.93;;
11151;SDS011;5630;49.342;10.802;2024-02-26T02:31:17;11.03;;;8.10;;
11151;SDS011;5630;49.342;10.802;2024-02-26T02:33:44;10.60;;;8.27;;
11151;SDS011;5630;49.342;10.802;2024-02-26T02:36:09;10.63;;;8.23;;
11151;SDS011;5630;49.342;10.802;2024-02-26T02:38:36;11.17;;;8.17;;
11151;SDS011;5630;49.342;10.802;2024-02-26T02:41:02;12.83;;;8.97;;
11151;SDS011;5630;49.342;10.802;2024-02-26T02:43:28;12.57;;;9.00;;
11151;SDS011;5630;49.342;10.802;2024-02-26T02:45:54;11.80;;;8.77;;
11151;SDS011;5630;49.342;10.802;2024-02-26T02:48:19;15.90;;;10.03;;
11151;SDS011;5630;49.342;10.802;2024-02-26T02:50:45;15.03;;;9.97;;
11151;SDS011;5630;49.342;10.802;2024-02-26T02:53:10;16.17;;;9.90;;
11151;SDS011;5630;49.342;10.802;2024-02-26T02:55:36;13.07;;;9.97;;
11151;SDS011;5630;49.342;10.802;2024-02-26T02:58:02;12.93;;;10.03;;
11151;SDS011;5630;49.342;10.802;2024-02-26T03:00:28;16.90;;;10.93;;
11151;SDS011;5630;49.342;10.802;2024-02-26T03:02:53;14.83;;;10.23;;
11151;SDS011;5630;49.342;10.802;2024-02-26T03:05:19;14.43;;;10.67;;
11151;SDS011;5630;49.342;10.802;2024-02-26T03:07:44;15.60;;;11.73;;
11151;SDS011;5630;49.342;10.802;2024-02-26T03:10:10;20.47;;;11.47;;
11151;SDS011;5630;49.342;10.802;2024-02-26T03:12:35;20.37;;;12.20;;
11151;SDS011;5630;49.342;10.802;2024-02-26T03:15:01;19.60;;;13.80;;
11151;SDS011;5630;49.342;10.802;2024-02-26T03:17:30;20.13;;;13.27;;
11151;SDS011;5630;49.342;10.802;2024-02-26T03:19:56;22.40;;;14.47;;
11151;SDS011;5630;49.342;10.802;2024-02-26T03:22:21;21.03;;;14.20;;
11151;SDS011;5630;49.342;10.802;2024-02-26T03:24:47;19.30;;;13.57;;
11151;SDS011;5630;49.342;10.802;2024-02-26T03:27:13;18.33;;;12.67;;
11151;SDS011;5630;49.342;10.802;2024-02-26T03:29:39;18.80;;;13.47;;
11151;SDS011;5630;49.342;10.802;2024-02-26T03:32:05;20.17;;;13.90;;
11151;SDS011;5630;49.342;10.802;2024-02-26T03:34:31;19.23;;;12.60;;
11151;SDS011;5630;49.342;10.802;2024-02-26T03:36:59;20.53;;;13.20;;
11151;SDS011;5630;49.342;10.802;2024-02-26T03:39:25;18.30;;;13.17;;
11151;SDS011;5630;49.342;10.802;2024-02-26T03:41:50;22.37;;;13.73;;
11151;SDS011;5630;49.342;10.802;2024-02-26T03:44:16;19.23;;;13.47;;
11151;SDS011;5630;49.342;10.802;2024-02-26T03:46:42;19.97;;;13.57;;
11151;SDS011;5630;49.342;10.802;2024-02-26T03:49:07;20.97;;;13.53;;
11151;SDS011;5630;49.342;10.802;2024-02-26T03:51:33;21.40;;;14.10;;
11151;SDS011;5630;49.342;10.802;2024-02-26T03:53:59;21.17;;;13.73;;
11151;SDS011;5630;49.342;10.802;2024-02-26T03:56:25;20.93;;;13.90;;
11151;SDS011;5630;49.342;10.802;2024-02-26T03:58:52;19.20;;;13.10;;
11151;SDS011;5630;49.342;10.802;2024-02-26T04:01:17;18.40;;;13.17;;
11151;SDS011;5630;49.342;10.802;2024-02-26T04:03:43;23.03;;;13.67;;
11151;SDS011;5630;49.342;10.802;2024-02-26T04:06:09;24.77;;;13.53;;
11151;SDS011;5630;49.342;10.802;2024-02-26T04:08:35;21.63;;;13.73;;
11151;SDS011;5630;49.342;10.802;2024-02-26T04:11:01;21.07;;;15.10;;
11151;SDS011;5630;49.342;10.802;2024-02-26T04:13:32;19.07;;;14.30;;
11151;SDS011;5630;49.342;10.802;2024-02-26T04:15:57;20.07;;;15.07;;
11151;SDS011;5630;49.342;10.802;2024-02-26T04:18:23;20.37;;;13.73;;
11151;SDS011;5630;49.342;10.802;2024-02-26T04:20:49;23.43;;;14.50;;
11151;SDS011;5630;49.342;10.802;2024-02-26T04:23:16;21.83;;;14.43;;
11151;SDS011;5630;49.342;10.802;2024-02-26T04:25:42;20.90;;;15.13;;
11151;SDS011;5630;49.342;10.802;2024-02-26T04:28:07;21.40;;;14.63;;
11151;SDS011;5630;49.342;10.802;2024-02-26T04:30:33;21.90;;;15.20;;
11151;SDS011;5630;49.342;10.802;2024-02-26T04:32:58;20.90;;;14.40;;
11151;SDS011;5630;49.342;10.802;2024-02-26T04:35:24;22.77;;;15.00;;
11151;SDS011;5630;49.342;10.802;2024-02-26T04:37:49;20.23;;;14.37;;
11151;SDS011;5630;49.342;10.802;2024-02-26T04:40:15;24.53;;;15.17;;
11151;SDS011;5630;49.342;10.802;2024-02-26T04:42:40;21.23;;;15.07;;
11151;SDS011;5630;49.342;10.802;2024-02-26T04:45:06;20.67;;;15.10;;
11151;SDS011;5630;49.342;10.802;2024-02-26T04:47:33;21.37;;;15.37;;
11151;SDS011;5630;49.342;10.802;2024-02-26T04:49:59;19.57;;;14.43;;
11151;SDS011;5630;49.342;10.802;2024-02-26T04:52:25;25.03;;;15.53;;
11151;SDS011;5630;49.342;10.802;2024-02-26T04:54:51;20.67;;;15.00;;
11151;SDS011;5630;49.342;10.802;2024-02-26T04:57:16;21.93;;;15.23;;
11151;SDS011;5630;49.342;10.802;2024-02-26T04:59:43;25.23;;;14.67;;
11151;SDS011;5630;49.342;10.802;2024-02-26T05:02:10;23.50;;;15.57;;
11151;SDS011;5630;49.342;10.802;2024-02-26T05:04:36;23.30;;;15.50;;
11151;SDS011;5630;49.342;10.802;2024-02-26T05:07:02;20.20;;;15.20;;
11151;SDS011;5630;49.342;10.802;2024-02-26T05:09:28;24.20;;;16.50;;
11151;SDS011;5630;49.342;10.802;2024-02-26T05:11:54;22.37;;;15.90;;
11151;SDS011;5630;49.342;10.802;2024-02-26T05:14:19;21.03;;;14.93;;
11151;SDS011;5630;49.342;10.802;2024-02-26T05:16:45;20.93;;;15.27;;
11151;SDS011;5630;49.342;10.802;2024-02-26T05:19:11;21.27;;;15.17;;
11151;SDS011;5630;49.342;10.802;2024-02-26T05:21:36;20.33;;;14.77;;
11151;SDS011;5630;49.342;10.802;2024-02-26T05:24:02;25.43;;;15.57;;
11151;SDS011;5630;49.342;10.802;2024-02-26T05:26:28;21.40;;;14.43;;
11151;SDS011;5630;49.342;10.802;2024-02-26T05:28:53;21.73;;;14.93;;
11151;SDS011;5630;49.342;10.802;2024-02-26T05:31:24;23.93;;;16.57;;
11151;SDS011;5630;49.342;10.802;2024-02-26T05:33:50;20.47;;;15.43;;
11151;SDS011;5630;49.342;10.802;2024-02-26T05:36:21;22.57;;;16.33;;
11151;SDS011;5630;49.342;10.802;2024-02-26T05:38:47;24.33;;;15.30;;
11151;SDS011;5630;49.342;10.802;2024-02-26T05:41:15;23.00;;;16.07;;
11151;SDS011;5630;49.342;10.802;2024-02-26T05:43:41;21.50;;;16.00;;
11151;SDS011;5630;49.342;10.802;2024-02-26T05:46:07;23.53;;;16.47;;
11151;SDS011;5630;49.342;10.802;2024-02-26T05:48:32;22.60;;;16.20;;
11151;SDS011;5630;49.342;10.802;2024-02-26T05:50:58;25.37;;;16.57;;
11151;SDS011;5630;49.342;10.802;2024-02-26T05:53:23;22.93;;;16.90;;
11151;SDS011;5630;49.342;10.802;2024-02-26T05:55:49;22.30;;;15.87;;
11151;SDS011;5630;49.342;10.802;2024-02-26T05:58:14;23.43;;;15.80;;
11151;SDS011;5630;49.342;10.802;2024-02-26T06:00:40;23.50;;;16.70;;
11151;SDS011;5630;49.342;10.802;2024-02-26T06:03:06;24.23;;;16.77;;
11151;SDS011;5630;49.342;10.802;2024-02-26T06:05:31;22.97;;;15.57;;
11151;SDS011;5630;49.342;10.802;2024-02-26T06:07:57;21.77;;;15.10;;
11151;SDS011;5630;49.342;10.802;2024-02-26T06:10:22;21.93;;;15.07;;
11151;SDS011;5630;49.342;10.802;2024-02-26T06:12:48;22.67;;;16.60;;
11151;SDS011;5630;49.342;10.802;2024-02-26T06:15:14;25.47;;;17.13;;
11151;SDS011;5630;49.342;10.802;2024-02-26T06:17:39;25.80;;;16.00;;
11151;SDS011;5630;49.342;10.802;2024-02-26T06:20:05;25.33;;;18.27;;
11151;SDS011;5630;49.342;10.802;2024-02-26T06:22:31;24.00;;;17.40;;
11151;SDS011;5630;49.342;10.802;2024-02-26T06:24:57;22.00;;;16.03;;
11151;SDS011;5630;49.342;10.802;2024-02-26T06:27:23;25.50;;;17.33;;
11151;SDS011;5630;49.342;10.802;2024-02-26T06:29:49;28.33;;;18.67;;
11151;SDS011;5630;49.342;10.802;2024-02-26T06:32:14;28.87;;;17.87;;
11151;SDS011;5630;49.342;10.802;2024-02-26T06:34:40;22.67;;;15.47;;
11151;SDS011;5630;49.342;10.802;2024-02-26T06:37:07;20.77;;;15.43;;
11151;SDS011;5630;49.342;10.802;2024-02-26T06:39:33;22.90;;;15.93;;
11151;SDS011;5630;49.342;10.802;2024-02-26T06:41:58;20.63;;;14.70;;
11151;SDS011;5630;49.342;10.802;2024-02-26T06:44:27;20.73;;;15.37;;
11151;SDS011;5630;49.342;10.802;2024-02-26T06:46:59;25.13;;;16.30;;
11151;SDS011;5630;49.342;10.802;2024-02-26T06:49:25;21.80;;;15.10;;
11151;SDS011;5630;49.342;10.802;2024-02-26T06:51:51;25.37;;;15.97;;
11151;SDS011;5630;49.342;10.802;2024-02-26T06:54:16;20.83;;;13.83;;
11151;SDS011;5630;49.342;10.802;2024-02-26T06:56:42;20.93;;;15.00;;
11151;SDS011;5630;49.342;10.802;2024-02-26T06:59:08;18.90;;;13.67;;
11151;SDS011;5630;49.342;10.802;2024-02-26T07:01:33;20.77;;;14.27;;
11151;SDS011;5630;49.342;10.802;2024-02-26T07:03:59;22.90;;;15.40;;
11151;SDS011;5630;49.342;10.802;2024-02-26T07:06:25;18.57;;;12.53;;
11151;SDS011;5630;49.342;10.802;2024-02-26T07:08:52;20.97;;;14.97;;
11151;SDS011;5630;49.342;10.802;2024-02-26T07:11:17;18.90;;;14.87;;
11151;SDS011;5630;49.342;10.802;2024-02-26T07:13:44;15.37;;;9.20;;
11151;SDS011;5630;49.342;10.802;2024-02-26T07:16:14;17.03;;;10.97;;
11151;SDS011;5630;49.342;10.802;2024-02-26T07:18:40;14.53;;;10.17;;
11151;SDS011;5630;49.342;10.802;2024-02-26T07:21:06;20.00;;;11.03;;
11151;SDS011;5630;49.342;10.802;2024-02-26T07:23:31;13.23;;;10.20;;
11151;SDS011;5630;49.342;10.802;2024-02-26T07:25:57;17.33;;;12.33;;
11151;SDS011;5630;49.342;10.802;2024-02-26T07:28:24;12.83;;;9.30;;
11151;SDS011;5630;49.342;10.802;2024-02-26T07:30:49;15.13;;;9.77;;
11151;SDS011;5630;49.342;10.802;2024-02-26T07:33:15;17.43;;;11.90;;
11151;SDS011;5630;49.342;10.802;2024-02-26T07:35:40;15.17;;;10.93;;
11151;SDS011;5630;49.342;10.802;2024-02-26T07:38:06;14.57;;;11.57;;
11151;SDS011;5630;49.342;10.802;2024-02-26T07:40:32;16.57;;;11.93;;
11151;SDS011;5630;49.342;10.802;2024-02-26T07:42:57;14.37;;;11.40;;
11151;SDS011;5630;49.342;10.802;2024-02-26T07:45:23;16.50;;;11.93;;
11151;SDS011;5630;49.342;10.802;2024-02-26T07:47:48;13.03;;;8.73;;
11151;SDS011;5630;49.342;10.802;2024-02-26T07:50:16;16.67;;;11.60;;
11151;SDS011;5630;49.342;10.802;2024-02-26T07:52:41;16.97;;;12.30;;
11151;SDS011;5630;49.342;10.802;2024-02-26T07:55:07;18.50;;;12.30;;
11151;SDS011;5630;49.342;10.802;2024-02-26T07:57:33;15.90;;;11.43;;
11151;SDS011;5630;49.342;10.802;2024-02-26T07:59:59;16.73;;;11.90;;
11151;SDS011;5630;49.342;10.802;2024-02-26T08:02:25;14.20;;;11.30;;
11151;SDS011;5630;49.342;10.802;2024-02-26T08:04:50;16.93;;;11.10;;
11151;SDS011;5630;49.342;10.802;2024-02-26T08:07:16;17.47;;;13.13;;
11151;SDS011;5630;49.342;10.802;2024-02-26T08:09:42;17.67;;;12.80;;
11151;SDS011;5630;49.342;10.802;2024-02-26T08:12:07;18.53;;;12.50;;
11151;SDS011;5630;49.342;10.802;2024-02-26T08:14:33;17.23;;;12.27;;
11151;SDS011;5630;49.342;10.802;2024-02-26T08:16:58;17.43;;;12.53;;
11151;SDS011;5630;49.342;10.802;2024-02-26T08:19:24;16.80;;;11.03;;
11151;SDS011;5630;49.342;10.802;2024-02-26T08:21:51;16.67;;;12.50;;
11151;SDS011;5630;49.342;10.802;2024-02-26T08:24:16;19.03;;;12.23;;
11151;SDS011;5630;49.342;10.802;2024-02-26T08:26:42;15.87;;;11.90;;
11151;SDS011;5630;49.342;10.802;2024-02-26T08:29:07;15.33;;;10.87;;
11151;SDS011;5630;49.342;10.802;2024-02-26T08:31:33;13.60;;;11.10;;
11151;SDS011;5630;49.342;10.802;2024-02-26T08:34:02;14.80;;;10.70;;
11151;SDS011;5630;49.342;10.802;2024-02-26T08:36:28;17.20;;;11.63;;
11151;SDS011;5630;49.342;10.802;2024-02-26T08:38:53;13.57;;;10.80;;
11151;SDS011;5630;49.342;10.802;2024-02-26T08:41:19;14.93;;;11.57;;
11151;SDS011;5630;49.342;10.802;2024-02-26T08:43:45;15.70;;;10.90;;
11151;SDS011;5630;49.342;10.802;2024-02-26T08:46:12;16.20;;;10.80;;
11151;SDS011;5630;49.342;10.802;2024-02-26T08:48:38;14.80;;;11.13;;
11151;SDS011;5630;49.342;10.802;2024-02-26T08:51:05;16.13;;;12.03;;
11151;SDS011;5630;49.342;10.802;2024-02-26T08:53:31;15.30;;;10.87;;
11151;SDS011;5630;49.342;10.802;2024-02-26T08:55:57;13.23;;;10.37;;
11151;SDS011;5630;49.342;10.802;2024-02-26T08:58:22;13.67;;;10.00;;
11151;SDS011;5630;49.342;10.802;2024-02-26T09:00:48;11.83;;;9.63;;
11151;SDS011;5630;49.342;10.802;2024-02-26T09:03:14;12.37;;;9.83;;
11151;SDS011;5630;49.342;10.802;2024-02-26T09:05:39;13.50;;;9.90;;
11151;SDS011;5630;49.342;10.802;2024-02-26T09:08:05;12.17;;;8.70;;
11151;SDS011;5630;49.342;10.802;2024-02-26T09:10:31;12.73;;;8.30;;
11151;SDS011;5630;49.342;10.802;2024-02-26T09:12:57;12.13;;;8.90;;
11151;SDS011;5630;49.342;10.802;2024-02-26T09:15:23;11.17;;;8.53;;
11151;SDS011;5630;49.342;10.802;2024-02-26T09:17:49;10.10;;;8.33;;
11151;SDS011;5630;49.342;10.802;2024-02-26T09:20:15;11.90;;;8.27;;
11151;SDS011;5630;49.342;10.802;2024-02-26T09:22:44;11.00;;;8.43;;
11151;SDS011;5630;49.342;10.802;2024-02-26T09:25:13;11.70;;;8.73;;
11151;SDS011;5630;49.342;10.802;2024-02-26T09:27:41;10.53;;;7.53;;
11151;SDS011;5630;49.342;10.802;2024-02-26T09:30:12;10.13;;;8.23;;
11151;SDS011;5630;49.342;10.802;2024-02-26T09:32:38;11.17;;;7.67;;
11151;SDS011;5630;49.342;10.802;2024-02-26T09:35:07;9.93;;;7.70;;
11151;SDS011;5630;49.342;10.802;2024-02-26T09:37:33;7.97;;;6.27;;
11151;SDS011;5630;49.342;10.802;2024-02-26T09:39:59;12.87;;;8.10;;
11151;SDS011;5630;49.342;10.802;2024-02-26T09:42:25;7.40;;;5.00;;
11151;SDS011;5630;49.342;10.802;2024-02-26T09:44:51;12.77;;;7.10;;
11151;SDS011;5630;49.342;10.802;2024-02-26T09:47:20;9.17;;;6.87;;
11151;SDS011;5630;49.342;10.802;2024-02-26T09:49:48;10.13;;;7.10;;
11151;SDS011;5630;49.342;10.802;2024-02-26T09:52:15;8.87;;;7.23;;
11151;SDS011;5630;49.342;10.802;2024-02-26T09:54:41;12.43;;;6.83;;
11151;SDS011;5630;49.342;10.802;2024-02-26T09:57:11;8.33;;;6.80;;
11151;SDS011;5630;49.342;10.802;2024-02-26T09:59:41;10.40;;;6.57;;
11151;SDS011;5630;49.342;10.802;2024-02-26T10:02:14;7.60;;;5.93;;
11151;SDS011;5630;49.342;10.802;2024-02-26T10:04:40;7.60;;;5.87;;
11151;SDS011;5630;49.342;10.802;2024-02-26T10:07:09;7.63;;;6.00;;
11151;SDS011;5630;49.342;10.802;2024-02-26T10:09:36;8.80;;;5.27;;
11151;SDS011;5630;49.342;10.802;2024-02-26T10:12:02;7.90;;;6.03;;
11151;SDS011;5630;49.342;10.802;2024-02-26T10:14:29;10.97;;;5.73;;
11151;SDS011;5630;49.342;10.802;2024-02-26T10:16:55;9.70;;;5.43;;
11151;SDS011;5630;49.342;10.802;2024-02-26T10:19:25;7.90;;;4.87;;
11151;SDS011;5630;49.342;10.802;2024-02-26T10:21:54;8.63;;;5.07;;
11151;SDS011;5630;49.342;10.802;2024-02-26T10:24:24;9.03;;;5.63;;
11151;SDS011;5630;49.342;10.802;2024-02-26T10:26:51;6.30;;;4.87;;
11151;SDS011;5630;49.342;10.802;2024-02-26T10:29:19;17.67;;;5.50;;
11151;SDS011;5630;49.342;10.802;2024-02-26T10:31:45;7.03;;;4.73;;
11151;SDS011;5630;49.342;10.802;2024-02-26T10:34:11;7.53;;;5.13;;
11151;SDS011;5630;49.342;10.802;2024-02-26T10:36:37;11.70;;;5.40;;
11151;SDS011;5630;49.342;10.802;2024-02-26T10:39:06;9.97;;;5.07;;
11151;SDS011;5630;49.342;10.802;2024-02-26T10:41:32;8.07;;;5.13;;
11151;SDS011;5630;49.342;10.802;2024-02-26T10:43:59;9.57;;;4.77;;
11151;SDS011;5630;49.342;10.802;2024-02-26T10:46:25;6.00;;;4.30;;
11151;SDS011;5630;49.342;10.802;2024-02-26T10:48:52;6.63;;;4.43;;
11151;SDS011;5630;49.342;10.802;2024-02-26T10:51:27;10.83;;;4.13;;
11151;SDS011;5630;49.342;10.802;2024-02-26T10:53:57;9.80;;;4.40;;
11151;SDS011;5630;49.342;10.802;2024-02-26T10:56:26;9.43;;;4.70;;
11151;SDS011;5630;49.342;10.802;2024-02-26T10:58:55;5.23;;;3.93;;
11151;SDS011;5630;49.342;10.802;2024-02-26T11:01:23;8.90;;;4.33;;
11151;SDS011;5630;49.342;10.802;2024-02-26T11:03:50;7.67;;;4.00;;
11151;SDS011;5630;49.342;10.802;2024-02-26T11:06:17;7.93;;;3.67;;
11151;SDS011;5630;49.342;10.802;2024-02-26T11:08:47;7.30;;;3.70;;
11151;SDS011;5630;49.342;10.802;2024-02-26T11:11:20;6.03;;;4.40;;
11151;SDS011;5630;49.342;10.802;2024-02-26T11:13:47;6.50;;;3.77;;
11151;SDS011;5630;49.342;10.802;2024-02-26T11:16:16;9.73;;;4.23;;
11151;SDS011;5630;49.342;10.802;2024-02-26T11:18:43;4.50;;;3.50;;
11151;SDS011;5630;49.342;10.802;2024-02-26T11:21:12;6.87;;;3.77;;
11151;SDS011;5630;49.342;10.802;2024-02-26T11:23:40;7.73;;;3.63;;
11151;SDS011;5630;49.342;10.802;2024-02-26T11:26:06;6.17;;;3.37;;
11151;SDS011;5630;49.342;10.802;2024-02-26T11:28:34;5.17;;;3.33;;
11151;SDS011;5630;49.342;10.802;2024-02-26T11:31:00;7.23;;;3.00;;
11151;SDS011;5630;49.342;10.802;2024-02-26T11:33:29;3.80;;;2.63;;
11151;SDS011;5630;49.342;10.802;2024-02-26T11:35:55;8.07;;;3.00;;
11151;SDS011;5630;49.342;10.802;2024-02-26T11:38:21;3.67;;;3.03;;
11151;SDS011;5630;49.342;10.802;2024-02-26T11:40:48;6.13;;;2.70;;
11151;SDS011;5630;49.342;10.802;2024-02-26T11:43:15;4.33;;;3.10;;
11151;SDS011;5630;49.342;10.802;2024-02-26T11:48:14;5.93;;;2.70;;
11151;SDS011;5630;49.342;10.802;2024-02-26T11:50:41;4.17;;;2.63;;
11151;SDS011;5630;49.342;10.802;2024-02-26T11:53:27;4.30;;;2.57;;
11151;SDS011;5630;49.342;10.802;2024-02-26T11:59:03;2.70;;;2.50;;
11151;SDS011;5630;49.342;10.802;2024-02-26T12:04:13;3.37;;;2.53;;
11151;SDS011;5630;49.342;10.802;2024-02-26T12:06:41;5.60;;;2.40;;
11151;SDS011;5630;49.342;10.802;2024-02-26T12:09:11;6.87;;;2.43;;
11151;SDS011;5630;49.342;10.802;2024-02-26T12:11:38;4.90;;;2.57;;
11151;SDS011;5630;49.342;10.802;2024-02-26T12:14:05;2.20;;;2.00;;
11151;SDS011;5630;49.342;10.802;2024-02-26T12:16:36;3.53;;;2.20;;
11151;SDS011;5630;49.342;10.802;2024-02-26T12:19:08;2.60;;;2.10;;
11151;SDS011;5630;49.342;10.802;2024-02-26T12:21:35;2.57;;;1.93;;
11151;SDS011;5630;49.342;10.802;2024-02-26T12:26:37;6.37;;;2.03;;
11151;SDS011;5630;49.342;10.802;2024-02-26T12:29:04;2.40;;;2.03;;
11151;SDS011;5630;49.342;10.802;2024-02-26T12:31:29;3.33;;;1.93;;
11151;SDS011;5630;49.342;10.802;2024-02-26T12:33:56;5.53;;;2.33;;
11151;SDS011;5630;49.342;10.802;2024-02-26T12:36:22;4.20;;;2.00;;
11151;SDS011;5630;49.342;10.802;2024-02-26T12:38:48;3.17;;;2.13;;
11151;SDS011;5630;49.342;10.802;2024-02-26T12:41:17;2.67;;;2.17;;
11151;SDS011;5630;49.342;10.802;2024-02-26T12:43:43;3.20;;;2.20;;
11151;SDS011;5630;49.342;10.802;2024-02-26T12:46:08;6.07;;;2.20;;
11151;SDS011;5630;49.342;10.802;2024-02-26T12:48:35;2.83;;;2.00;;
11151;SDS011;5630;49.342;10.802;2024-02-26T12:51:01;5.80;;;2.40;;
11151;SDS011;5630;49.342;10.802;2024-02-26T12:53:27;6.93;;;2.40;;
11151;SDS011;5630;49.342;10.802;2024-02-26T12:55:56;3.33;;;2.30;;
11151;SDS011;5630;49.342;10.802;2024-02-26T12:58:21;4.67;;;2.00;;
11151;SDS011;5630;49.342;10.802;2024-02-26T13:00:52;3.47;;;2.23;;
11151;SDS011;5630;49.342;10.802;2024-02-26T13:03:19;2.83;;;2.13;;
11151;SDS011;5630;49.342;10.802;2024-02-26T13:05:46;2.50;;;2.10;;
11151;SDS011;5630;49.342;10.802;2024-02-26T13:08:18;4.00;;;2.23;;
11151;SDS011;5630;49.342;10.802;2024-02-26T13:10:48;3.37;;;2.30;;
11151;SDS011;5630;49.342;10.802;2024-02-26T13:13:15;2.97;;;2.40;;
11151;SDS011;5630;49.342;10.802;2024-02-26T13:15:45;4.00;;;2.60;;
11151;SDS011;5630;49.342;10.802;2024-02-26T13:18:11;6.03;;;2.33;;
11151;SDS011;5630;49.342;10.802;2024-02-26T13:20:38;2.30;;;2.00;;
11151;SDS011;5630;49.342;10.802;2024-02-26T13:23:07;5.63;;;2.47;;
11151;SDS011;5630;49.342;10.802;2024-02-26T13:25:36;2.43;;;1.97;;
11151;SDS011;5630;49.342;10.802;2024-02-26T13:28:05;7.23;;;2.33;;
11151;SDS011;5630;49.342;10.802;2024-02-26T13:30:35;3.20;;;2.10;;
11151;SDS011;5630;49.342;10.802;2024-02-26T13:33:07;3.37;;;2.00;;
11151;SDS011;5630;49.342;10.802;2024-02-26T13:35:34;3.43;;;2.30;;
11151;SDS011;5630;49.342;10.802;2024-02-26T13:38:00;3.83;;;1.87;;
11151;SDS011;5630;49.342;10.802;2024-02-26T13:40:25;6.00;;;2.20;;
11151;SDS011;5630;49.342;10.802;2024-02-26T13:42:51;2.43;;;1.80;;
11151;SDS011;5630;49.342;10.802;2024-02-26T13:45:17;6.10;;;1.93;;
11151;SDS011;5630;49.342;10.802;2024-02-26T13:47:43;3.07;;;1.63;;
11151;SDS011;5630;49.342;10.802;2024-02-26T13:50:09;2.80;;;1.70;;
11151;SDS011;5630;49.342;10.802;2024-02-26T13:52:35;2.37;;;1.77;;
11151;SDS011;5630;49.342;10.802;2024-02-26T13:55:00;2.90;;;1.90;;
11151;SDS011;5630;49.342;10.802;2024-02-26T13:57:27;4.10;;;1.63;;
11151;SDS011;5630;49.342;10.802;2024-02-26T13:59:53;3.37;;;1.80;;
11151;SDS011;5630;49.342;10.802;2024-02-26T14:02:19;2.07;;;1.60;;
11151;SDS011;5630;49.342;10.802;2024-02-26T14:04:45;5.13;;;1.80;;
11151;SDS011;5630;49.342;10.802;2024-02-26T14:07:12;2.10;;;1.70;;
11151;SDS011;5630;49.342;10.802;2024-02-26T14:09:38;2.87;;;1.60;;
11151;SDS011;5630;49.342;10.802;2024-02-26T14:12:04;5.50;;;1.73;;
11151;SDS011;5630;49.342;10.802;2024-02-26T14:14:30;2.40;;;1.60;;
11151;SDS011;5630;49.342;10.802;2024-02-26T14:16:57;4.37;;;2.03;;
11151;SDS011;5630;49.342;10.802;2024-02-26T14:19:23;3.73;;;1.83;;
11151;SDS011;5630;49.342;10.802;2024-02-26T14:21:49;6.23;;;1.67;;
11151;SDS011;5630;49.342;10.802;2024-02-26T14:24:14;3.50;;;1.80;;
11151;SDS011;5630;49.342;10.802;2024-02-26T14:26:40;4.47;;;1.80;;
11151;SDS011;5630;49.342;10.802;2024-02-26T14:29:07;3.37;;;1.70;;
11151;SDS011;5630;49.342;10.802;2024-02-26T14:31:32;2.23;;;1.80;;
11151;SDS011;5630;49.342;10.802;2024-02-26T14:33:58;4.80;;;1.80;;
11151;SDS011;5630;49.342;10.802;2024-02-26T14:36:24;2.27;;;1.70;;
11151;SDS011;5630;49.342;10.802;2024-02-26T14:38:49;2.73;;;1.70;;
11151;SDS011;5630;49.342;10.802;2024-02-26T14:41:16;4.17;;;2.17;;